sensor_id;sensor_type;location;lat;lon;timestamp;P1;durP1;ratioP1;P2;durP2;ratioP2
58928;SDS011;44713;53.378;10.022;2023-03-03T00:01:41;72.38;;;30.73;;
58928;SDS011;44713;53.378;10.022;2023-03-03T00:04:07;79.13;;;32.10;;
58928;SDS011;44713;53.378;10.022;2023-03-03T00:06:32;83.25;;;32.65;;
58928;SDS011;44713;53.378;10.022;2023-03-03T00:08:57;70.88;;;30.05;;
58928;SDS011;44713;53.378;10.022;2023-03-03T00:11:23;75.47;;;30.70;;
58928;SDS011;44713;53.378;10.022;2023-03-03T00:13:50;77.60;;;31.15;;
58928;SDS011;44713;53.378;10.022;2023-03-03T00:16:24;74.65;;;30.08;;
58928;SDS011;44713;53.378;10.022;2023-03-03T00:18:53;87.78;;;32.28;;
58928;SDS011;44713;53.378;10.022;2023-03-03T00:21:24;73.97;;;31.20;;
58928;SDS011;44713;53.378;10.022;2023-03-03T00:24:01;86.97;;;30.38;;
58928;SDS011;44713;53.378;10.022;2023-03-03T00:26:39;80.95;;;30.27;;
58928;SDS011;44713;53.378;10.022;2023-03-03T00:31:48;93.65;;;29.73;;
58928;SDS011;44713;53.378;10.022;2023-03-03T00:34:18;86.53;;;30.30;;
58928;SDS011;44713;53.378;10.022;2023-03-03T00:36:54;96.72;;;33.42;;
58928;SDS011;44713;53.378;10.022;2023-03-03T00:39:30;89.95;;;31.92;;
58928;SDS011;44713;53.378;10.022;2023-03-03T00:41:59;89.95;;;30.60;;
58928;SDS011;44713;53.378;10.022;2023-03-03T00:44:36;92.63;;;32.25;;
58928;SDS011;44713;53.378;10.022;2023-03-03T00:49:51;88.38;;;32.47;;
58928;SDS011;44713;53.378;10.022;2023-03-03T00:52:24;87.53;;;32.40;;
58928;SDS011;44713;53.378;10.022;2023-03-03T00:54:52;94.13;;;32.08;;
58928;SDS011;44713;53.378;10.022;2023-03-03T00:57:18;89.50;;;31.55;;
58928;SDS011;44713;53.378;10.022;2023-03-03T00:59:43;93.07;;;31.70;;
58928;SDS011;44713;53.378;10.022;2023-03-03T01:02:09;83.68;;;30.60;;
58928;SDS011;44713;53.378;10.022;2023-03-03T01:04:35;88.10;;;31.15;;
58928;SDS011;44713;53.378;10.022;2023-03-03T01:07:00;86.75;;;30.55;;
58928;SDS011;44713;53.378;10.022;2023-03-03T01:09:26;75.78;;;28.58;;
58928;SDS011;44713;53.378;10.022;2023-03-03T01:11:52;76.13;;;29.30;;
58928;SDS011;44713;53.378;10.022;2023-03-03T01:14:19;85.93;;;30.83;;
58928;SDS011;44713;53.378;10.022;2023-03-03T01:16:45;87.28;;;31.88;;
58928;SDS011;44713;53.378;10.022;2023-03-03T01:19:10;72.97;;;28.80;;
58928;SDS011;44713;53.378;10.022;2023-03-03T01:21:36;80.43;;;30.55;;
58928;SDS011;44713;53.378;10.022;2023-03-03T01:24:01;74.88;;;29.90;;
58928;SDS011;44713;53.378;10.022;2023-03-03T01:26:27;75.95;;;30.65;;
58928;SDS011;44713;53.378;10.022;2023-03-03T01:28:52;83.93;;;30.58;;
58928;SDS011;44713;53.378;10.022;2023-03-03T01:31:17;79.88;;;30.85;;
58928;SDS011;44713;53.378;10.022;2023-03-03T01:33:43;69.97;;;29.73;;
58928;SDS011;44713;53.378;10.022;2023-03-03T01:36:09;75.65;;;29.15;;
58928;SDS011;44713;53.378;10.022;2023-03-03T01:38:41;72.60;;;28.75;;
58928;SDS011;44713;53.378;10.022;2023-03-03T01:41:07;73.22;;;27.83;;
58928;SDS011;44713;53.378;10.022;2023-03-03T01:43:33;73.40;;;29.35;;
58928;SDS011;44713;53.378;10.022;2023-03-03T01:48:33;72.70;;;26.80;;
58928;SDS011;44713;53.378;10.022;2023-03-03T01:53:51;69.82;;;29.35;;
58928;SDS011;44713;53.378;10.022;2023-03-03T01:56:20;67.13;;;29.02;;
58928;SDS011;44713;53.378;10.022;2023-03-03T01:58:48;69.57;;;27.75;;
58928;SDS011;44713;53.378;10.022;2023-03-03T02:01:21;62.92;;;26.33;;
58928;SDS011;44713;53.378;10.022;2023-03-03T02:03:50;70.18;;;27.92;;
58928;SDS011;44713;53.378;10.022;2023-03-03T02:06:18;63.83;;;27.92;;
58928;SDS011;44713;53.378;10.022;2023-03-03T02:08:53;62.47;;;27.52;;
58928;SDS011;44713;53.378;10.022;2023-03-03T02:11:22;66.45;;;26.60;;
58928;SDS011;44713;53.378;10.022;2023-03-03T02:13:48;63.78;;;27.00;;
58928;SDS011;44713;53.378;10.022;2023-03-03T02:16:14;67.15;;;28.00;;
58928;SDS011;44713;53.378;10.022;2023-03-03T02:18:39;66.57;;;26.83;;
58928;SDS011;44713;53.378;10.022;2023-03-03T02:26:39;58.65;;;26.10;;
58928;SDS011;44713;53.378;10.022;2023-03-03T02:29:07;55.83;;;24.52;;
58928;SDS011;44713;53.378;10.022;2023-03-03T02:31:36;63.72;;;26.70;;
58928;SDS011;44713;53.378;10.022;2023-03-03T02:34:02;56.47;;;24.60;;
58928;SDS011;44713;53.378;10.022;2023-03-03T02:36:29;71.40;;;26.67;;
58928;SDS011;44713;53.378;10.022;2023-03-03T02:44:16;69.25;;;24.70;;
58928;SDS011;44713;53.378;10.022;2023-03-03T02:46:45;61.13;;;25.40;;
58928;SDS011;44713;53.378;10.022;2023-03-03T02:49:13;71.53;;;26.67;;
58928;SDS011;44713;53.378;10.022;2023-03-03T02:51:40;63.65;;;26.08;;
58928;SDS011;44713;53.378;10.022;2023-03-03T02:54:06;56.70;;;24.25;;
58928;SDS011;44713;53.378;10.022;2023-03-03T02:56:33;65.95;;;26.75;;
58928;SDS011;44713;53.378;10.022;2023-03-03T02:58:58;61.17;;;24.45;;
58928;SDS011;44713;53.378;10.022;2023-03-03T03:01:25;51.95;;;23.00;;
58928;SDS011;44713;53.378;10.022;2023-03-03T03:03:52;53.97;;;22.60;;
58928;SDS011;44713;53.378;10.022;2023-03-03T03:06:21;46.63;;;21.85;;
58928;SDS011;44713;53.378;10.022;2023-03-03T03:08:46;46.15;;;22.55;;
58928;SDS011;44713;53.378;10.022;2023-03-03T03:11:12;52.20;;;22.05;;
58928;SDS011;44713;53.378;10.022;2023-03-03T03:13:38;45.08;;;21.60;;
58928;SDS011;44713;53.378;10.022;2023-03-03T03:16:04;43.10;;;22.05;;
58928;SDS011;44713;53.378;10.022;2023-03-03T03:18:29;44.25;;;22.13;;
58928;SDS011;44713;53.378;10.022;2023-03-03T03:20:56;44.33;;;20.73;;
58928;SDS011;44713;53.378;10.022;2023-03-03T03:23:21;49.05;;;23.30;;
58928;SDS011;44713;53.378;10.022;2023-03-03T03:25:47;41.00;;;21.25;;
58928;SDS011;44713;53.378;10.022;2023-03-03T03:28:20;43.95;;;22.00;;
58928;SDS011;44713;53.378;10.022;2023-03-03T03:30:45;44.42;;;21.80;;
58928;SDS011;44713;53.378;10.022;2023-03-03T03:33:11;39.95;;;18.77;;
58928;SDS011;44713;53.378;10.022;2023-03-03T03:35:38;44.95;;;21.45;;
58928;SDS011;44713;53.378;10.022;2023-03-03T03:38:10;44.47;;;21.15;;
58928;SDS011;44713;53.378;10.022;2023-03-03T03:40:35;40.60;;;20.80;;
58928;SDS011;44713;53.378;10.022;2023-03-03T03:43:01;42.92;;;21.17;;
58928;SDS011;44713;53.378;10.022;2023-03-03T03:45:26;45.00;;;20.80;;
58928;SDS011;44713;53.378;10.022;2023-03-03T03:47:52;45.22;;;20.95;;
58928;SDS011;44713;53.378;10.022;2023-03-03T03:50:17;49.90;;;21.58;;
58928;SDS011;44713;53.378;10.022;2023-03-03T03:52:43;48.42;;;21.35;;
58928;SDS011;44713;53.378;10.022;2023-03-03T03:55:10;49.65;;;21.45;;
58928;SDS011;44713;53.378;10.022;2023-03-03T03:57:37;50.55;;;23.45;;
58928;SDS011;44713;53.378;10.022;2023-03-03T04:00:03;56.00;;;25.33;;
58928;SDS011;44713;53.378;10.022;2023-03-03T04:02:39;62.55;;;24.40;;
58928;SDS011;44713;53.378;10.022;2023-03-03T04:05:04;61.65;;;24.13;;
58928;SDS011;44713;53.378;10.022;2023-03-03T04:07:30;54.88;;;24.13;;
58928;SDS011;44713;53.378;10.022;2023-03-03T04:09:55;54.38;;;22.58;;
58928;SDS011;44713;53.378;10.022;2023-03-03T04:12:21;58.75;;;24.55;;
58928;SDS011;44713;53.378;10.022;2023-03-03T04:14:46;56.05;;;22.55;;
58928;SDS011;44713;53.378;10.022;2023-03-03T04:17:15;58.47;;;24.15;;
58928;SDS011;44713;53.378;10.022;2023-03-03T04:19:44;55.67;;;23.23;;
58928;SDS011;44713;53.378;10.022;2023-03-03T04:22:10;57.55;;;23.77;;
58928;SDS011;44713;53.378;10.022;2023-03-03T04:24:36;51.63;;;21.23;;
58928;SDS011;44713;53.378;10.022;2023-03-03T04:27:03;56.10;;;22.77;;
58928;SDS011;44713;53.378;10.022;2023-03-03T04:29:28;58.72;;;22.85;;
58928;SDS011;44713;53.378;10.022;2023-03-03T04:31:53;58.85;;;22.10;;
58928;SDS011;44713;53.378;10.022;2023-03-03T04:34:19;48.60;;;21.48;;
58928;SDS011;44713;53.378;10.022;2023-03-03T04:36:45;51.45;;;21.73;;
58928;SDS011;44713;53.378;10.022;2023-03-03T04:39:11;44.17;;;21.05;;
58928;SDS011;44713;53.378;10.022;2023-03-03T04:41:38;41.90;;;19.75;;
58928;SDS011;44713;53.378;10.022;2023-03-03T04:44:03;44.97;;;19.10;;
58928;SDS011;44713;53.378;10.022;2023-03-03T04:46:30;42.97;;;20.05;;
58928;SDS011;44713;53.378;10.022;2023-03-03T04:48:56;41.08;;;19.35;;
58928;SDS011;44713;53.378;10.022;2023-03-03T04:51:22;40.45;;;19.23;;
58928;SDS011;44713;53.378;10.022;2023-03-03T04:53:48;40.85;;;19.75;;
58928;SDS011;44713;53.378;10.022;2023-03-03T04:56:13;41.33;;;20.38;;
58928;SDS011;44713;53.378;10.022;2023-03-03T04:58:39;42.70;;;20.83;;
58928;SDS011;44713;53.378;10.022;2023-03-03T05:01:05;40.47;;;18.95;;
58928;SDS011;44713;53.378;10.022;2023-03-03T05:03:32;38.90;;;19.38;;
58928;SDS011;44713;53.378;10.022;2023-03-03T05:05:58;35.40;;;17.77;;
58928;SDS011;44713;53.378;10.022;2023-03-03T05:08:23;41.22;;;19.52;;
58928;SDS011;44713;53.378;10.022;2023-03-03T05:10:52;38.25;;;18.38;;
58928;SDS011;44713;53.378;10.022;2023-03-03T05:13:19;37.25;;;18.02;;
58928;SDS011;44713;53.378;10.022;2023-03-03T05:15:49;44.38;;;19.88;;
58928;SDS011;44713;53.378;10.022;2023-03-03T05:18:19;37.40;;;17.38;;
58928;SDS011;44713;53.378;10.022;2023-03-03T05:20:45;37.35;;;18.23;;
58928;SDS011;44713;53.378;10.022;2023-03-03T05:23:11;38.08;;;18.98;;
58928;SDS011;44713;53.378;10.022;2023-03-03T05:25:36;39.92;;;18.95;;
58928;SDS011;44713;53.378;10.022;2023-03-03T05:28:02;40.38;;;20.83;;
58928;SDS011;44713;53.378;10.022;2023-03-03T05:30:28;39.20;;;19.05;;
58928;SDS011;44713;53.378;10.022;2023-03-03T05:32:54;38.30;;;19.65;;
58928;SDS011;44713;53.378;10.022;2023-03-03T05:35:19;38.72;;;18.10;;
58928;SDS011;44713;53.378;10.022;2023-03-03T05:37:44;38.15;;;17.88;;
58928;SDS011;44713;53.378;10.022;2023-03-03T05:40:12;36.10;;;18.38;;
58928;SDS011;44713;53.378;10.022;2023-03-03T05:42:39;39.83;;;20.17;;
58928;SDS011;44713;53.378;10.022;2023-03-03T05:45:04;36.80;;;18.58;;
58928;SDS011;44713;53.378;10.022;2023-03-03T05:47:30;40.28;;;20.27;;
58928;SDS011;44713;53.378;10.022;2023-03-03T05:49:55;37.05;;;19.10;;
58928;SDS011;44713;53.378;10.022;2023-03-03T05:52:21;43.55;;;20.35;;
58928;SDS011;44713;53.378;10.022;2023-03-03T05:54:48;45.17;;;19.35;;
58928;SDS011;44713;53.378;10.022;2023-03-03T05:57:13;43.35;;;20.38;;
58928;SDS011;44713;53.378;10.022;2023-03-03T05:59:39;42.05;;;19.90;;
58928;SDS011;44713;53.378;10.022;2023-03-03T06:02:04;41.30;;;19.38;;
58928;SDS011;44713;53.378;10.022;2023-03-03T06:04:30;41.25;;;19.60;;
58928;SDS011;44713;53.378;10.022;2023-03-03T06:06:55;42.22;;;20.05;;
58928;SDS011;44713;53.378;10.022;2023-03-03T06:09:21;38.13;;;18.75;;
58928;SDS011;44713;53.378;10.022;2023-03-03T06:11:46;40.03;;;18.73;;
58928;SDS011;44713;53.378;10.022;2023-03-03T06:14:12;36.53;;;18.48;;
58928;SDS011;44713;53.378;10.022;2023-03-03T06:16:37;38.13;;;18.88;;
58928;SDS011;44713;53.378;10.022;2023-03-03T06:19:03;40.33;;;18.85;;
58928;SDS011;44713;53.378;10.022;2023-03-03T06:21:29;37.30;;;19.13;;
58928;SDS011;44713;53.378;10.022;2023-03-03T06:23:54;42.97;;;20.00;;
58928;SDS011;44713;53.378;10.022;2023-03-03T06:26:20;40.03;;;18.88;;
58928;SDS011;44713;53.378;10.022;2023-03-03T06:28:45;43.03;;;19.05;;
58928;SDS011;44713;53.378;10.022;2023-03-03T06:31:11;40.92;;;19.63;;
58928;SDS011;44713;53.378;10.022;2023-03-03T06:33:36;35.35;;;18.42;;
58928;SDS011;44713;53.378;10.022;2023-03-03T06:36:02;38.22;;;18.60;;
58928;SDS011;44713;53.378;10.022;2023-03-03T06:38:28;37.03;;;18.08;;
58928;SDS011;44713;53.378;10.022;2023-03-03T06:40:53;39.95;;;18.00;;
58928;SDS011;44713;53.378;10.022;2023-03-03T06:43:18;36.88;;;18.48;;
58928;SDS011;44713;53.378;10.022;2023-03-03T06:45:44;43.65;;;19.23;;
58928;SDS011;44713;53.378;10.022;2023-03-03T06:48:10;44.33;;;21.10;;
58928;SDS011;44713;53.378;10.022;2023-03-03T06:50:35;40.63;;;19.38;;
58928;SDS011;44713;53.378;10.022;2023-03-03T06:53:05;40.78;;;18.55;;
58928;SDS011;44713;53.378;10.022;2023-03-03T06:55:31;37.95;;;19.10;;
58928;SDS011;44713;53.378;10.022;2023-03-03T06:57:58;41.42;;;19.42;;
58928;SDS011;44713;53.378;10.022;2023-03-03T07:00:24;40.50;;;18.20;;
58928;SDS011;44713;53.378;10.022;2023-03-03T07:03:03;37.00;;;17.88;;
58928;SDS011;44713;53.378;10.022;2023-03-03T07:05:36;41.17;;;19.85;;
58928;SDS011;44713;53.378;10.022;2023-03-03T07:08:01;44.97;;;20.20;;
58928;SDS011;44713;53.378;10.022;2023-03-03T07:10:30;41.55;;;19.30;;
58928;SDS011;44713;53.378;10.022;2023-03-03T07:13:18;39.03;;;18.67;;
58928;SDS011;44713;53.378;10.022;2023-03-03T07:15:50;47.85;;;20.27;;
58928;SDS011;44713;53.378;10.022;2023-03-03T07:21:07;36.80;;;16.33;;
58928;SDS011;44713;53.378;10.022;2023-03-03T07:23:40;34.00;;;15.80;;
58928;SDS011;44713;53.378;10.022;2023-03-03T07:26:13;41.10;;;17.83;;
58928;SDS011;44713;53.378;10.022;2023-03-03T07:28:48;34.88;;;16.88;;
58928;SDS011;44713;53.378;10.022;2023-03-03T07:31:24;35.38;;;17.20;;
58928;SDS011;44713;53.378;10.022;2023-03-03T07:33:53;35.63;;;17.85;;
58928;SDS011;44713;53.378;10.022;2023-03-03T07:36:29;36.10;;;18.15;;
58928;SDS011;44713;53.378;10.022;2023-03-03T07:39:00;34.45;;;16.98;;
58928;SDS011;44713;53.378;10.022;2023-03-03T07:41:38;31.35;;;15.75;;
58928;SDS011;44713;53.378;10.022;2023-03-03T07:44:04;32.13;;;15.63;;
58928;SDS011;44713;53.378;10.022;2023-03-03T07:46:40;32.92;;;16.52;;
58928;SDS011;44713;53.378;10.022;2023-03-03T07:52:16;28.77;;;14.65;;
58928;SDS011;44713;53.378;10.022;2023-03-03T07:54:47;34.70;;;16.48;;
58928;SDS011;44713;53.378;10.022;2023-03-03T07:59:45;34.60;;;16.67;;
58928;SDS011;44713;53.378;10.022;2023-03-03T08:05:19;30.45;;;15.38;;
58928;SDS011;44713;53.378;10.022;2023-03-03T08:10:53;32.13;;;15.73;;
58928;SDS011;44713;53.378;10.022;2023-03-03T08:13:26;30.48;;;15.10;;
58928;SDS011;44713;53.378;10.022;2023-03-03T08:15:58;35.05;;;16.05;;
58928;SDS011;44713;53.378;10.022;2023-03-03T08:18:33;28.42;;;14.43;;
58928;SDS011;44713;53.378;10.022;2023-03-03T08:21:02;29.77;;;15.43;;
58928;SDS011;44713;53.378;10.022;2023-03-03T08:23:29;31.38;;;15.13;;
58928;SDS011;44713;53.378;10.022;2023-03-03T08:25:54;32.92;;;16.15;;
58928;SDS011;44713;53.378;10.022;2023-03-03T08:28:20;33.83;;;16.30;;
58928;SDS011;44713;53.378;10.022;2023-03-03T08:30:46;32.50;;;15.80;;
58928;SDS011;44713;53.378;10.022;2023-03-03T08:33:12;34.97;;;15.98;;
58928;SDS011;44713;53.378;10.022;2023-03-03T08:35:38;37.03;;;17.80;;
58928;SDS011;44713;53.378;10.022;2023-03-03T08:38:04;32.92;;;16.77;;
58928;SDS011;44713;53.378;10.022;2023-03-03T08:40:30;31.73;;;15.60;;
58928;SDS011;44713;53.378;10.022;2023-03-03T08:42:56;31.60;;;15.77;;
58928;SDS011;44713;53.378;10.022;2023-03-03T08:45:22;35.17;;;16.20;;
58928;SDS011;44713;53.378;10.022;2023-03-03T08:47:48;32.42;;;15.48;;
58928;SDS011;44713;53.378;10.022;2023-03-03T08:50:14;32.78;;;14.95;;
58928;SDS011;44713;53.378;10.022;2023-03-03T08:52:39;35.13;;;15.85;;
58928;SDS011;44713;53.378;10.022;2023-03-03T08:55:05;32.22;;;15.65;;
58928;SDS011;44713;53.378;10.022;2023-03-03T08:57:31;35.38;;;16.27;;
58928;SDS011;44713;53.378;10.022;2023-03-03T08:59:56;33.10;;;16.15;;
58928;SDS011;44713;53.378;10.022;2023-03-03T09:02:22;29.60;;;14.60;;
58928;SDS011;44713;53.378;10.022;2023-03-03T09:04:47;32.40;;;16.25;;
58928;SDS011;44713;53.378;10.022;2023-03-03T09:07:12;31.42;;;15.07;;
58928;SDS011;44713;53.378;10.022;2023-03-03T09:09:38;29.63;;;14.23;;
58928;SDS011;44713;53.378;10.022;2023-03-03T09:12:08;30.88;;;13.95;;
58928;SDS011;44713;53.378;10.022;2023-03-03T09:14:40;24.85;;;13.18;;
58928;SDS011;44713;53.378;10.022;2023-03-03T09:17:16;25.92;;;14.48;;
58928;SDS011;44713;53.378;10.022;2023-03-03T09:19:48;23.85;;;13.30;;
58928;SDS011;44713;53.378;10.022;2023-03-03T09:22:23;26.77;;;14.00;;
58928;SDS011;44713;53.378;10.022;2023-03-03T09:24:52;24.83;;;12.55;;
58928;SDS011;44713;53.378;10.022;2023-03-03T09:27:23;27.50;;;14.23;;
58928;SDS011;44713;53.378;10.022;2023-03-03T09:29:52;23.05;;;12.60;;
58928;SDS011;44713;53.378;10.022;2023-03-03T09:32:23;23.08;;;12.32;;
58928;SDS011;44713;53.378;10.022;2023-03-03T09:34:55;26.92;;;13.18;;
58928;SDS011;44713;53.378;10.022;2023-03-03T09:40:06;23.73;;;13.35;;
58928;SDS011;44713;53.378;10.022;2023-03-03T09:43:15;26.13;;;13.35;;
58928;SDS011;44713;53.378;10.022;2023-03-03T09:46:08;28.23;;;14.40;;
58928;SDS011;44713;53.378;10.022;2023-03-03T09:48:41;23.35;;;12.98;;
58928;SDS011;44713;53.378;10.022;2023-03-03T09:51:14;23.92;;;13.05;;
58928;SDS011;44713;53.378;10.022;2023-03-03T09:56:32;22.95;;;12.45;;
58928;SDS011;44713;53.378;10.022;2023-03-03T09:59:14;25.88;;;13.85;;
58928;SDS011;44713;53.378;10.022;2023-03-03T10:08:01;22.08;;;12.05;;
58928;SDS011;44713;53.378;10.022;2023-03-03T10:13:19;21.40;;;12.13;;
58928;SDS011;44713;53.378;10.022;2023-03-03T10:18:44;21.15;;;12.45;;
58928;SDS011;44713;53.378;10.022;2023-03-03T10:21:24;22.92;;;12.15;;
58928;SDS011;44713;53.378;10.022;2023-03-03T10:24:05;21.55;;;12.23;;
58928;SDS011;44713;53.378;10.022;2023-03-03T10:29:43;20.08;;;10.65;;
58928;SDS011;44713;53.378;10.022;2023-03-03T10:37:47;17.42;;;9.88;;
58928;SDS011;44713;53.378;10.022;2023-03-03T10:40:44;19.77;;;9.60;;
58928;SDS011;44713;53.378;10.022;2023-03-03T10:46:35;16.40;;;10.57;;
58928;SDS011;44713;53.378;10.022;2023-03-03T10:54:41;22.45;;;13.90;;
58928;SDS011;44713;53.378;10.022;2023-03-03T10:57:25;22.58;;;15.07;;
58928;SDS011;44713;53.378;10.022;2023-03-03T11:11:19;14.48;;;9.05;;
58928;SDS011;44713;53.378;10.022;2023-03-03T11:13:55;13.55;;;8.40;;
58928;SDS011;44713;53.378;10.022;2023-03-03T11:16:40;12.85;;;8.07;;
58928;SDS011;44713;53.378;10.022;2023-03-03T11:19:32;15.07;;;8.18;;
58928;SDS011;44713;53.378;10.022;2023-03-03T11:22:20;13.35;;;8.02;;
58928;SDS011;44713;53.378;10.022;2023-03-03T11:24:57;16.55;;;7.90;;
58928;SDS011;44713;53.378;10.022;2023-03-03T11:27:37;14.95;;;7.93;;
58928;SDS011;44713;53.378;10.022;2023-03-03T11:30:23;14.45;;;7.85;;
58928;SDS011;44713;53.378;10.022;2023-03-03T11:33:09;12.43;;;7.40;;
58928;SDS011;44713;53.378;10.022;2023-03-03T11:35:46;12.43;;;7.80;;
58928;SDS011;44713;53.378;10.022;2023-03-03T11:41:09;15.77;;;8.75;;
58928;SDS011;44713;53.378;10.022;2023-03-03T11:43:41;16.13;;;8.82;;
58928;SDS011;44713;53.378;10.022;2023-03-03T11:46:15;16.35;;;8.65;;
58928;SDS011;44713;53.378;10.022;2023-03-03T11:48:50;12.60;;;8.27;;
58928;SDS011;44713;53.378;10.022;2023-03-03T11:56:57;15.82;;;8.43;;
58928;SDS011;44713;53.378;10.022;2023-03-03T11:59:43;16.63;;;8.68;;
58928;SDS011;44713;53.378;10.022;2023-03-03T12:05:08;13.75;;;7.70;;
58928;SDS011;44713;53.378;10.022;2023-03-03T12:10:32;14.95;;;7.50;;
58928;SDS011;44713;53.378;10.022;2023-03-03T12:13:01;11.25;;;6.57;;
58928;SDS011;44713;53.378;10.022;2023-03-03T12:18:35;15.40;;;7.80;;
58928;SDS011;44713;53.378;10.022;2023-03-03T12:21:17;15.88;;;7.60;;
58928;SDS011;44713;53.378;10.022;2023-03-03T12:27:00;16.75;;;7.90;;
58928;SDS011;44713;53.378;10.022;2023-03-03T12:29:39;14.30;;;7.63;;
58928;SDS011;44713;53.378;10.022;2023-03-03T12:32:16;19.67;;;7.57;;
58928;SDS011;44713;53.378;10.022;2023-03-03T12:35:16;15.65;;;6.68;;
58928;SDS011;44713;53.378;10.022;2023-03-03T12:37:55;12.18;;;6.07;;
58928;SDS011;44713;53.378;10.022;2023-03-03T12:40:35;14.90;;;6.88;;
58928;SDS011;44713;53.378;10.022;2023-03-03T12:43:16;13.10;;;6.35;;
58928;SDS011;44713;53.378;10.022;2023-03-03T12:48:53;13.90;;;5.55;;
58928;SDS011;44713;53.378;10.022;2023-03-03T12:56:47;14.13;;;5.05;;
58928;SDS011;44713;53.378;10.022;2023-03-03T12:59:20;10.60;;;5.43;;
58928;SDS011;44713;53.378;10.022;2023-03-03T13:04:56;12.05;;;4.63;;
58928;SDS011;44713;53.378;10.022;2023-03-03T13:10:21;8.35;;;4.68;;
58928;SDS011;44713;53.378;10.022;2023-03-03T13:12:57;11.20;;;4.45;;
58928;SDS011;44713;53.378;10.022;2023-03-03T13:15:32;9.10;;;4.43;;
58928;SDS011;44713;53.378;10.022;2023-03-03T13:23:53;12.75;;;4.20;;
58928;SDS011;44713;53.378;10.022;2023-03-03T13:31:34;5.97;;;3.55;;
58928;SDS011;44713;53.378;10.022;2023-03-03T13:34:06;9.75;;;4.13;;
58928;SDS011;44713;53.378;10.022;2023-03-03T13:36:40;8.00;;;3.70;;
58928;SDS011;44713;53.378;10.022;2023-03-03T13:39:24;8.00;;;3.75;;
58928;SDS011;44713;53.378;10.022;2023-03-03T13:42:20;9.02;;;3.53;;
58928;SDS011;44713;53.378;10.022;2023-03-03T13:44:51;8.45;;;3.97;;
58928;SDS011;44713;53.378;10.022;2023-03-03T13:55:54;6.90;;;3.47;;
58928;SDS011;44713;53.378;10.022;2023-03-03T13:58:36;9.00;;;3.72;;
58928;SDS011;44713;53.378;10.022;2023-03-03T14:01:16;6.85;;;3.95;;
58928;SDS011;44713;53.378;10.022;2023-03-03T14:06:23;6.97;;;3.22;;
58928;SDS011;44713;53.378;10.022;2023-03-03T14:11:40;6.60;;;2.92;;
58928;SDS011;44713;53.378;10.022;2023-03-03T14:14:24;7.65;;;3.15;;
58928;SDS011;44713;53.378;10.022;2023-03-03T14:17:15;4.85;;;2.40;;
58928;SDS011;44713;53.378;10.022;2023-03-03T14:19:59;4.63;;;2.80;;
58928;SDS011;44713;53.378;10.022;2023-03-03T14:22:52;3.50;;;2.45;;
58928;SDS011;44713;53.378;10.022;2023-03-03T14:25:20;3.80;;;2.20;;
58928;SDS011;44713;53.378;10.022;2023-03-03T14:35:31;4.93;;;2.55;;
58928;SDS011;44713;53.378;10.022;2023-03-03T14:38:02;4.80;;;1.95;;
58928;SDS011;44713;53.378;10.022;2023-03-03T14:40:36;6.18;;;2.38;;
58928;SDS011;44713;53.378;10.022;2023-03-03T14:49:32;3.55;;;2.50;;
58928;SDS011;44713;53.378;10.022;2023-03-03T14:52:02;4.32;;;2.38;;
58928;SDS011;44713;53.378;10.022;2023-03-03T14:54:49;6.90;;;2.58;;
58928;SDS011;44713;53.378;10.022;2023-03-03T14:57:37;7.13;;;2.30;;
58928;SDS011;44713;53.378;10.022;2023-03-03T15:02:56;7.35;;;1.70;;
58928;SDS011;44713;53.378;10.022;2023-03-03T15:05:30;5.43;;;1.80;;
58928;SDS011;44713;53.378;10.022;2023-03-03T15:07:57;4.72;;;1.77;;
58928;SDS011;44713;53.378;10.022;2023-03-03T15:10:34;2.67;;;1.73;;
58928;SDS011;44713;53.378;10.022;2023-03-03T15:18:16;4.82;;;1.50;;
58928;SDS011;44713;53.378;10.022;2023-03-03T15:23:28;2.63;;;1.42;;
58928;SDS011;44713;53.378;10.022;2023-03-03T15:26:18;3.67;;;1.42;;
58928;SDS011;44713;53.378;10.022;2023-03-03T15:29:49;3.67;;;1.30;;
58928;SDS011;44713;53.378;10.022;2023-03-03T15:32:13;4.50;;;1.60;;
58928;SDS011;44713;53.378;10.022;2023-03-03T15:34:54;6.85;;;1.40;;
58928;SDS011;44713;53.378;10.022;2023-03-03T15:40:23;3.55;;;1.27;;
58928;SDS011;44713;53.378;10.022;2023-03-03T15:50:42;4.75;;;1.40;;
58928;SDS011;44713;53.378;10.022;2023-03-03T15:53:51;5.35;;;1.67;;
58928;SDS011;44713;53.378;10.022;2023-03-03T15:56:36;4.40;;;1.70;;
58928;SDS011;44713;53.378;10.022;2023-03-03T16:02:13;3.75;;;1.45;;
58928;SDS011;44713;53.378;10.022;2023-03-03T16:13:21;7.35;;;2.08;;
58928;SDS011;44713;53.378;10.022;2023-03-03T16:16:19;5.20;;;1.58;;
58928;SDS011;44713;53.378;10.022;2023-03-03T16:19:17;4.57;;;1.92;;
58928;SDS011;44713;53.378;10.022;2023-03-03T16:22:21;5.00;;;2.08;;
58928;SDS011;44713;53.378;10.022;2023-03-03T16:25:02;4.28;;;1.73;;
58928;SDS011;44713;53.378;10.022;2023-03-03T16:30:39;7.35;;;2.00;;
58928;SDS011;44713;53.378;10.022;2023-03-03T16:33:23;8.23;;;2.00;;
58928;SDS011;44713;53.378;10.022;2023-03-03T16:38:44;6.22;;;1.88;;
58928;SDS011;44713;53.378;10.022;2023-03-03T16:46:55;6.03;;;1.92;;
58928;SDS011;44713;53.378;10.022;2023-03-03T16:50:15;7.35;;;2.10;;
58928;SDS011;44713;53.378;10.022;2023-03-03T16:55:43;8.15;;;2.10;;
58928;SDS011;44713;53.378;10.022;2023-03-03T17:01:01;6.63;;;2.22;;
58928;SDS011;44713;53.378;10.022;2023-03-03T17:06:15;4.63;;;1.90;;
58928;SDS011;44713;53.378;10.022;2023-03-03T17:23:44;7.32;;;1.90;;
58928;SDS011;44713;53.378;10.022;2023-03-03T17:36:32;7.88;;;1.60;;
58928;SDS011;44713;53.378;10.022;2023-03-03T17:47:48;12.10;;;2.10;;
58928;SDS011;44713;53.378;10.022;2023-03-03T17:50:33;13.57;;;2.80;;
58928;SDS011;44713;53.378;10.022;2023-03-03T17:56:08;16.15;;;2.25;;
58928;SDS011;44713;53.378;10.022;2023-03-03T17:58:45;13.90;;;2.28;;
58928;SDS011;44713;53.378;10.022;2023-03-03T18:06:57;16.80;;;2.63;;
58928;SDS011;44713;53.378;10.022;2023-03-03T18:22:49;17.60;;;2.53;;
58928;SDS011;44713;53.378;10.022;2023-03-03T18:25:51;15.02;;;2.45;;
58928;SDS011;44713;53.378;10.022;2023-03-03T18:28:22;21.02;;;3.20;;
58928;SDS011;44713;53.378;10.022;2023-03-03T18:31:00;24.95;;;3.30;;
58928;SDS011;44713;53.378;10.022;2023-03-03T18:33:55;19.08;;;3.25;;
58928;SDS011;44713;53.378;10.022;2023-03-03T18:38:58;27.42;;;3.90;;
58928;SDS011;44713;53.378;10.022;2023-03-03T18:41:29;19.13;;;2.70;;
58928;SDS011;44713;53.378;10.022;2023-03-03T18:43:57;24.65;;;2.75;;
58928;SDS011;44713;53.378;10.022;2023-03-03T18:48:57;14.57;;;2.33;;
58928;SDS011;44713;53.378;10.022;2023-03-03T19:10:05;18.55;;;2.83;;
58928;SDS011;44713;53.378;10.022;2023-03-03T19:12:52;22.38;;;3.13;;
58928;SDS011;44713;53.378;10.022;2023-03-03T19:18:04;19.05;;;3.33;;
58928;SDS011;44713;53.378;10.022;2023-03-03T19:20:41;25.35;;;2.88;;
58928;SDS011;44713;53.378;10.022;2023-03-03T19:23:14;22.15;;;3.00;;
58928;SDS011;44713;53.378;10.022;2023-03-03T19:28:55;22.50;;;3.13;;
58928;SDS011;44713;53.378;10.022;2023-03-03T19:37:09;18.13;;;2.47;;
58928;SDS011;44713;53.378;10.022;2023-03-03T19:51:12;17.33;;;3.13;;
58928;SDS011;44713;53.378;10.022;2023-03-03T20:04:46;22.27;;;3.17;;